createdAt,value
2022-08-17T00:01:51.568Z,20.10
2022-08-17T00:04:24.193Z,20.00
2022-08-17T00:06:57.461Z,20.00
2022-08-17T00:09:27.950Z,20.00
2022-08-17T00:12:40.630Z,20.00
2022-08-17T00:14:50.564Z,19.90
2022-08-17T00:17:21.224Z,19.90
2022-08-17T00:19:51.490Z,19.90
2022-08-17T00:22:31.601Z,19.90
2022-08-17T00:25:07.557Z,19.90
2022-08-17T00:27:38.399Z,19.80
2022-08-17T00:30:14.456Z,19.80
2022-08-17T00:33:15.409Z,19.80
2022-08-17T00:35:38.777Z,19.70
2022-08-17T00:38:12.540Z,19.70
2022-08-17T00:40:48.314Z,19.60
2022-08-17T00:43:26.118Z,19.60
2022-08-17T00:45:56.964Z,19.60
2022-08-17T00:48:30.622Z,19.50
2022-08-17T00:51:07.985Z,19.40
2022-08-17T00:53:44.809Z,19.30
2022-08-17T00:56:21.180Z,19.30
2022-08-17T00:58:55.257Z,19.30
2022-08-17T01:01:26.246Z,19.40
2022-08-17T01:03:58.054Z,19.40
2022-08-17T01:06:31.013Z,19.40
2022-08-17T01:09:05.270Z,19.30
2022-08-17T01:11:37.333Z,19.30
2022-08-17T01:14:07.981Z,19.30
2022-08-17T01:16:39.500Z,19.20
2022-08-17T01:19:20.341Z,19.20
2022-08-17T01:21:58.240Z,19.10
2022-08-17T01:24:34.353Z,19.10
2022-08-17T01:27:10.361Z,19.20
2022-08-17T01:29:45.537Z,19.20
2022-08-17T01:32:16.282Z,19.20
2022-08-17T01:34:50.661Z,19.20
2022-08-17T01:37:24.149Z,19.10
2022-08-17T01:40:03.867Z,18.90
2022-08-17T01:42:40.892Z,19.00
2022-08-17T01:45:23.197Z,18.90
2022-08-17T01:47:54.964Z,18.80
2022-08-17T01:50:29.471Z,18.80
2022-08-17T01:53:03.055Z,18.80
2022-08-17T01:55:51.895Z,18.80
2022-08-17T01:58:22.663Z,18.90
2022-08-17T02:01:00.519Z,18.90
2022-08-17T02:03:33.234Z,18.90
2022-08-17T02:06:05.180Z,18.90
2022-08-17T02:08:37.154Z,18.80
2022-08-17T02:11:17.277Z,18.80
2022-08-17T02:13:49.396Z,18.80
2022-08-17T02:16:37.005Z,18.80
2022-08-17T02:19:12.636Z,18.80
2022-08-17T02:21:43.890Z,18.70
2022-08-17T02:24:58.289Z,18.70
2022-08-17T02:27:11.896Z,18.70
2022-08-17T02:29:42.501Z,18.60
2022-08-17T02:32:27.717Z,18.60
2022-08-17T02:34:59.556Z,18.60
2022-08-17T02:37:31.737Z,18.70
2022-08-17T02:40:02.953Z,18.60
2022-08-17T02:42:40.078Z,18.60
2022-08-17T02:45:15.302Z,18.50
2022-08-17T02:47:47.145Z,18.40
2022-08-17T02:50:20.697Z,18.40
2022-08-17T02:52:57.265Z,18.50
2022-08-17T02:55:35.762Z,18.50
2022-08-17T02:58:10.682Z,18.50
2022-08-17T03:00:44.392Z,18.50
2022-08-17T03:03:18.852Z,18.50
2022-08-17T03:05:51.898Z,18.40
2022-08-17T03:08:23.535Z,18.40
2022-08-17T03:10:53.979Z,18.40
2022-08-17T03:13:27.740Z,18.40
2022-08-17T03:15:58.061Z,18.30
2022-08-17T03:18:28.621Z,18.20
2022-08-17T03:21:04.432Z,18.10
2022-08-17T03:23:41.040Z,18.20
2022-08-17T03:26:15.551Z,18.20
2022-08-17T03:28:49.336Z,18.20
2022-08-17T03:31:21.610Z,18.20
2022-08-17T03:33:51.993Z,18.10
2022-08-17T03:36:22.467Z,18.10
2022-08-17T03:38:53.784Z,18.20
2022-08-17T03:41:25.061Z,18.20
2022-08-17T03:43:57.926Z,18.10
2022-08-17T03:46:41.050Z,18.10
2022-08-17T03:49:24.483Z,18.10
2022-08-17T03:52:07.372Z,18.00
2022-08-17T03:54:50.154Z,18.00
2022-08-17T03:57:20.653Z,18.00
2022-08-17T03:59:54.079Z,17.90
2022-08-17T04:02:31.678Z,17.80
2022-08-17T04:05:02.962Z,17.80
2022-08-17T04:07:34.741Z,17.70
2022-08-17T04:10:05.388Z,17.70
2022-08-17T04:12:50.118Z,17.70
2022-08-17T04:15:23.807Z,17.80
2022-08-17T04:17:54.853Z,17.80
2022-08-17T04:20:27.763Z,17.80
2022-08-17T04:23:05.086Z,17.80
2022-08-17T04:25:37.826Z,17.80
2022-08-17T04:28:15.804Z,17.90
2022-08-17T04:30:50.512Z,17.90
2022-08-17T04:33:24.214Z,17.90
2022-08-17T04:35:58.323Z,17.90
2022-08-17T04:38:31.949Z,17.90
2022-08-17T04:41:15.984Z,17.80
2022-08-17T04:43:48.414Z,17.90
2022-08-17T04:46:24.633Z,17.90
2022-08-17T04:48:57.333Z,17.90
2022-08-17T04:51:31.682Z,18.00
2022-08-17T04:54:07.035Z,18.10
2022-08-17T04:56:38.001Z,18.10
2022-08-17T04:59:12.245Z,18.20
2022-08-17T05:01:47.916Z,18.20
2022-08-17T05:04:34.833Z,18.30
2022-08-17T05:07:05.881Z,18.30
2022-08-17T05:09:36.173Z,18.40
2022-08-17T05:12:08.006Z,18.40
2022-08-17T05:14:38.365Z,18.50
2022-08-17T05:17:11.591Z,18.70
2022-08-17T05:19:42.217Z,18.80
2022-08-17T05:22:14.965Z,18.90
2022-08-17T05:24:53.885Z,19.00
2022-08-17T05:27:26.922Z,19.00
2022-08-17T05:30:05.632Z,19.10
2022-08-17T05:32:40.315Z,19.20
2022-08-17T05:35:12.044Z,19.20
2022-08-17T05:37:42.324Z,19.40
2022-08-17T05:40:14.235Z,19.40
2022-08-17T05:42:44.848Z,19.50
2022-08-17T05:45:28.123Z,19.70
2022-08-17T05:48:13.227Z,19.80
2022-08-17T05:50:52.485Z,20.00
2022-08-17T05:53:31.674Z,20.10
2022-08-17T05:56:30.235Z,20.30
2022-08-17T05:59:11.641Z,20.50
2022-08-17T06:01:51.147Z,20.50
2022-08-17T06:04:36.124Z,20.60
2022-08-17T06:07:15.260Z,20.70
2022-08-17T06:10:00.352Z,21.00
2022-08-17T06:12:43.743Z,21.10
2022-08-17T06:15:33.869Z,21.30
2022-08-17T06:18:08.744Z,21.40
2022-08-17T06:20:50.405Z,21.60
2022-08-17T06:23:29.849Z,21.60
2022-08-17T06:26:06.442Z,21.80
2022-08-17T06:28:42.240Z,21.90
2022-08-17T06:31:21.031Z,21.90
2022-08-17T06:33:52.479Z,21.90
2022-08-17T06:36:52.501Z,22.00
2022-08-17T06:39:40.616Z,22.00
2022-08-17T06:42:59.946Z,22.10
2022-08-17T06:45:18.397Z,22.20
2022-08-17T06:47:55.772Z,22.20
2022-08-17T06:50:35.214Z,22.30
2022-08-17T06:53:26.543Z,22.40
2022-08-17T06:56:02.750Z,22.40
2022-08-17T06:58:35.775Z,22.50
2022-08-17T07:01:15.507Z,22.60
2022-08-17T07:03:54.838Z,22.80
2022-08-17T07:06:29.021Z,23.10
2022-08-17T07:09:07.642Z,23.30
2022-08-17T07:11:52.985Z,23.70
2022-08-17T07:14:40.837Z,23.80
2022-08-17T07:17:15.779Z,23.80
2022-08-17T07:19:49.176Z,23.90
2022-08-17T07:22:30.874Z,24.10
2022-08-17T07:25:24.157Z,24.30
2022-08-17T07:28:00.382Z,24.40
2022-08-17T07:30:37.130Z,24.50
2022-08-17T07:33:20.479Z,24.70
2022-08-17T07:35:52.272Z,24.90
2022-08-17T07:38:26.851Z,25.20
2022-08-17T07:41:10.862Z,25.30
2022-08-17T07:43:52.487Z,25.40
2022-08-17T07:46:37.531Z,25.50
2022-08-17T07:49:30.641Z,25.60
2022-08-17T07:52:24.302Z,25.90
2022-08-17T07:54:58.921Z,26.10
2022-08-17T07:57:39.789Z,26.30
2022-08-17T08:00:26.628Z,26.50
2022-08-17T08:03:25.473Z,26.50
2022-08-17T08:06:00.434Z,26.70
2022-08-17T08:08:43.380Z,26.60
2022-08-17T08:11:18.015Z,26.60
2022-08-17T08:13:50.854Z,26.70
2022-08-17T08:16:32.135Z,27.00
2022-08-17T08:19:04.564Z,27.10
2022-08-17T08:21:53.747Z,27.30
2022-08-17T08:24:45.052Z,27.40
2022-08-17T08:27:32.959Z,27.50
2022-08-17T08:30:13.090Z,27.50
2022-08-17T08:33:10.677Z,27.70
2022-08-17T08:35:48.703Z,27.60
2022-08-17T08:38:33.756Z,27.70
2022-08-17T08:41:29.846Z,27.80
2022-08-17T08:44:15.085Z,27.70
2022-08-17T08:46:57.857Z,27.80
2022-08-17T08:50:37.142Z,28.00
2022-08-17T08:53:27.990Z,28.30
2022-08-17T08:56:06.376Z,28.40
2022-08-17T08:58:48.497Z,28.40
2022-08-17T09:01:30.514Z,28.70
2022-08-17T09:04:28.864Z,28.60
2022-08-17T09:07:13.136Z,28.50
2022-08-17T09:09:59.520Z,28.60
2022-08-17T09:12:39.821Z,28.60
2022-08-17T09:15:18.715Z,28.60
2022-08-17T09:18:28.512Z,28.90
2022-08-17T09:20:58.415Z,29.00
2022-08-17T09:23:35.430Z,28.90
2022-08-17T09:26:18.241Z,28.90
2022-08-17T09:28:54.917Z,28.80
2022-08-17T09:31:35.585Z,28.70
2022-08-17T09:34:33.214Z,28.70
2022-08-17T09:37:21.539Z,28.60
2022-08-17T09:40:07.596Z,28.70
2022-08-17T09:42:48.726Z,28.90
2022-08-17T09:45:32.626Z,29.30
2022-08-17T09:48:09.452Z,29.20
2022-08-17T09:51:03.894Z,29.20
2022-08-17T09:53:40.914Z,29.20
2022-08-17T09:56:31.364Z,29.10
2022-08-17T09:59:38.172Z,29.30
2022-08-17T10:02:45.866Z,29.50
2022-08-17T10:05:22.146Z,29.60
2022-08-17T10:08:00.785Z,29.60
2022-08-17T10:10:52.210Z,29.70
2022-08-17T10:13:39.345Z,29.60
2022-08-17T10:16:20.704Z,29.50
2022-08-17T10:19:08.212Z,29.50
2022-08-17T10:22:01.513Z,29.60
2022-08-17T10:25:22.642Z,29.70
2022-08-17T10:27:57.888Z,29.70
2022-08-17T10:30:31.895Z,29.60
2022-08-17T10:33:07.291Z,29.80
2022-08-17T10:35:51.266Z,30.00
2022-08-17T10:38:34.093Z,30.10
2022-08-17T10:41:19.437Z,30.20
2022-08-17T10:44:37.877Z,30.20
2022-08-17T10:47:09.938Z,30.30
2022-08-17T10:49:47.920Z,30.20
2022-08-17T10:52:54.980Z,30.30
2022-08-17T10:55:25.948Z,30.20
2022-08-17T10:58:24.627Z,29.90
2022-08-17T11:01:04.186Z,29.80
2022-08-17T11:03:35.068Z,29.70
2022-08-17T11:06:21.668Z,29.70
2022-08-17T11:09:31.639Z,29.80
2022-08-17T11:12:22.147Z,29.80
2022-08-17T11:15:24.513Z,29.70
2022-08-17T11:18:21.614Z,29.60
2022-08-17T11:21:20.443Z,29.60
2022-08-17T11:24:20.824Z,29.60
2022-08-17T11:27:12.514Z,29.60
2022-08-17T11:30:01.417Z,29.80
2022-08-17T11:32:48.724Z,29.90
2022-08-17T11:35:41.661Z,29.80
2022-08-17T11:38:28.459Z,29.70
2022-08-17T11:41:24.142Z,29.70
2022-08-17T11:44:18.742Z,29.70
2022-08-17T11:47:24.474Z,29.70
2022-08-17T11:50:38.394Z,29.80
2022-08-17T11:57:02.368Z,29.80
2022-08-17T12:00:05.117Z,29.70
2022-08-17T12:02:48.423Z,29.70
2022-08-17T12:05:37.337Z,29.70
2022-08-17T12:08:20.377Z,29.80
2022-08-17T12:11:02.728Z,29.70
2022-08-17T12:13:39.933Z,29.80
2022-08-17T12:16:11.522Z,29.70
2022-08-17T12:18:42.418Z,29.90
2022-08-17T12:21:43.625Z,30.00
2022-08-17T12:24:40.634Z,30.20
2022-08-17T12:27:14.200Z,30.30
2022-08-17T12:29:47.383Z,30.10
2022-08-17T12:32:22.138Z,30.00
2022-08-17T12:34:54.161Z,29.90
2022-08-17T12:37:28.011Z,29.80
2022-08-17T12:40:22.103Z,29.80
2022-08-17T12:43:01.198Z,29.60
2022-08-17T12:45:35.097Z,29.60
2022-08-17T12:48:09.458Z,29.80
2022-08-17T12:50:42.609Z,29.90
2022-08-17T12:53:15.941Z,29.80
2022-08-17T12:55:49.768Z,29.80
2022-08-17T12:58:25.105Z,29.70
2022-08-17T13:01:04.410Z,29.80
2022-08-17T13:03:42.942Z,29.80
2022-08-17T13:06:17.146Z,29.80
2022-08-17T13:08:50.863Z,29.90
2022-08-17T13:11:28.970Z,30.00
2022-08-17T13:14:12.169Z,30.10
2022-08-17T13:16:42.501Z,30.00
2022-08-17T13:19:20.403Z,30.00
2022-08-17T13:22:15.303Z,30.20
2022-08-17T13:24:57.824Z,30.20
2022-08-17T13:27:32.426Z,30.20
2022-08-17T13:30:07.767Z,30.20
2022-08-17T13:32:45.075Z,30.30
2022-08-17T13:35:49.309Z,30.30
2022-08-17T13:38:44.068Z,30.40
2022-08-17T13:41:33.761Z,30.50
2022-08-17T13:44:37.162Z,30.50
2022-08-17T13:47:09.969Z,30.50
2022-08-17T13:49:49.078Z,30.50
2022-08-17T13:52:39.854Z,30.30
2022-08-17T13:55:24.038Z,30.40
2022-08-17T13:58:04.110Z,30.40
2022-08-17T14:00:40.928Z,30.50
2022-08-17T14:03:11.161Z,30.40
2022-08-17T14:05:42.727Z,30.50
2022-08-17T14:08:17.052Z,30.40
2022-08-17T14:10:47.954Z,30.30
2022-08-17T14:13:18.755Z,30.30
2022-08-17T14:15:55.379Z,30.30
2022-08-17T14:18:55.268Z,30.20
2022-08-17T14:21:17.910Z,30.30
2022-08-17T14:23:54.611Z,30.30
2022-08-17T14:26:25.451Z,30.30
2022-08-17T14:28:56.930Z,30.50
2022-08-17T14:31:35.380Z,30.50
2022-08-17T14:34:10.540Z,30.50
2022-08-17T14:36:48.230Z,30.40
2022-08-17T14:39:20.470Z,30.40
2022-08-17T14:41:50.895Z,30.40
2022-08-17T14:44:21.308Z,30.40
2022-08-17T14:46:54.329Z,30.50
2022-08-17T14:49:26.139Z,30.80
2022-08-17T14:51:56.378Z,30.90
2022-08-17T14:54:32.903Z,30.80
2022-08-17T14:57:23.337Z,30.70
2022-08-17T14:59:57.668Z,30.80
2022-08-17T15:02:31.379Z,30.90
2022-08-17T15:05:03.876Z,30.90
2022-08-17T15:07:34.471Z,30.80
2022-08-17T15:10:04.704Z,30.70
2022-08-17T15:12:35.303Z,30.60
2022-08-17T15:15:08.533Z,30.50
2022-08-17T15:17:44.519Z,30.40
2022-08-17T15:20:19.487Z,30.40
2022-08-17T15:22:55.298Z,30.30
2022-08-17T15:25:28.055Z,30.20
2022-08-17T15:27:58.615Z,30.20
2022-08-17T15:30:30.445Z,30.20
2022-08-17T15:33:04.477Z,30.20
2022-08-17T15:35:37.599Z,30.10
2022-08-17T15:38:12.282Z,30.10
2022-08-17T15:40:47.199Z,30.10
2022-08-17T15:43:27.044Z,30.20
2022-08-17T15:46:03.151Z,30.20
2022-08-17T15:48:44.703Z,30.20
2022-08-17T15:51:18.468Z,30.10
2022-08-17T15:53:52.285Z,30.10
2022-08-17T15:56:23.021Z,30.20
2022-08-17T15:58:55.281Z,30.30
2022-08-17T16:02:29.914Z,30.30
2022-08-17T16:04:30.337Z,30.20
2022-08-17T16:07:02.007Z,30.30
2022-08-17T16:09:32.462Z,30.30
2022-08-17T16:12:13.497Z,30.40
2022-08-17T16:14:43.863Z,30.40
2022-08-17T16:17:29.607Z,30.30
2022-08-17T16:20:09.398Z,30.20
2022-08-17T16:22:52.917Z,30.20
2022-08-17T16:25:51.885Z,30.10
2022-08-17T16:28:20.505Z,30.00
2022-08-17T16:30:51.027Z,30.00
2022-08-17T16:33:21.583Z,30.20
2022-08-17T16:35:54.521Z,30.20
2022-08-17T16:38:24.855Z,30.20
2022-08-17T16:40:55.167Z,30.20
2022-08-17T16:43:25.861Z,30.10
2022-08-17T16:45:56.431Z,30.10
2022-08-17T16:48:27.854Z,30.10
2022-08-17T16:51:03.983Z,30.00
2022-08-17T16:53:35.303Z,30.00
2022-08-17T16:56:07.401Z,30.00
2022-08-17T16:58:41.073Z,30.00
2022-08-17T17:01:12.903Z,30.00
2022-08-17T17:03:47.786Z,29.90
2022-08-17T17:06:32.441Z,29.90
2022-08-17T17:09:06.773Z,29.90
2022-08-17T17:11:44.464Z,29.90
2022-08-17T17:14:21.988Z,29.80
2022-08-17T17:16:58.457Z,29.80
2022-08-17T17:19:35.854Z,29.70
2022-08-17T17:22:17.889Z,29.60
2022-08-17T17:24:59.292Z,29.70
2022-08-17T17:27:42.751Z,29.60
2022-08-17T17:30:20.880Z,29.50
2022-08-17T17:32:57.373Z,29.40
2022-08-17T17:35:36.228Z,29.30
2022-08-17T17:38:18.870Z,29.30
2022-08-17T17:40:53.979Z,29.20
2022-08-17T17:43:41.132Z,29.10
2022-08-17T17:46:27.306Z,29.00
2022-08-17T17:48:59.691Z,29.00
2022-08-17T17:52:06.442Z,28.90
2022-08-17T17:54:52.846Z,28.90
2022-08-17T17:57:33.023Z,28.90
2022-08-17T18:00:11.063Z,28.80
2022-08-17T18:03:03.068Z,28.70
2022-08-17T18:06:02.426Z,28.60
2022-08-17T18:08:49.366Z,28.60
2022-08-17T18:11:51.557Z,28.50
2022-08-17T18:14:36.321Z,28.40
2022-08-17T18:17:06.704Z,28.20
2022-08-17T18:19:39.110Z,28.10
2022-08-17T18:22:14.873Z,28.10
2022-08-17T18:24:49.277Z,28.00
2022-08-17T18:27:34.460Z,27.90
2022-08-17T18:30:26.265Z,27.80
2022-08-17T18:32:56.857Z,27.70
2022-08-17T18:35:36.697Z,27.60
2022-08-17T18:38:25.141Z,27.50
2022-08-17T18:41:20.146Z,27.40
2022-08-17T18:44:04.652Z,27.30
2022-08-17T18:46:37.648Z,27.20
2022-08-17T18:49:10.916Z,27.20
2022-08-17T18:51:44.080Z,27.10
2022-08-17T18:54:24.304Z,27.00
2022-08-17T18:56:57.989Z,27.00
2022-08-17T18:59:43.620Z,26.90
2022-08-17T19:02:44.767Z,26.80
2022-08-17T19:05:32.603Z,26.70
2022-08-17T19:08:25.583Z,26.70
2022-08-17T19:11:01.571Z,26.60
2022-08-17T19:13:38.161Z,26.60
2022-08-17T19:16:18.199Z,26.50
2022-08-17T19:18:53.722Z,26.40
2022-08-17T19:21:29.381Z,26.30
2022-08-17T19:24:08.196Z,26.30
2022-08-17T19:26:53.375Z,26.20
2022-08-17T19:29:36.337Z,26.20
2022-08-17T19:32:10.743Z,26.20
2022-08-17T19:34:44.783Z,26.20
2022-08-17T19:37:33.335Z,26.10
2022-08-17T19:40:41.674Z,26.10
2022-08-17T19:43:28.566Z,26.00
2022-08-17T19:46:08.703Z,26.00
2022-08-17T19:48:55.053Z,25.90
2022-08-17T19:51:42.926Z,25.90
2022-08-17T19:54:22.249Z,25.80
2022-08-17T19:57:01.958Z,25.80
2022-08-17T19:59:49.590Z,25.80
2022-08-17T20:02:36.709Z,25.80
2022-08-17T20:05:18.538Z,25.80
2022-08-17T20:07:57.661Z,25.70
2022-08-17T20:10:42.083Z,25.70
2022-08-17T20:13:18.403Z,25.60
2022-08-17T20:16:03.738Z,25.60
2022-08-17T20:18:41.895Z,25.60
2022-08-17T20:21:24.996Z,25.50
2022-08-17T20:24:02.285Z,25.50
2022-08-17T20:26:55.285Z,25.40
2022-08-17T20:30:06.419Z,25.40
2022-08-17T20:32:52.041Z,25.30
2022-08-17T20:35:28.513Z,25.30
2022-08-17T20:38:03.700Z,25.30
2022-08-17T20:40:41.106Z,25.20
2022-08-17T20:43:52.285Z,25.20
2022-08-17T20:47:00.806Z,25.10
2022-08-17T20:49:44.670Z,25.10
2022-08-17T20:52:18.558Z,25.00
2022-08-17T20:54:53.295Z,25.00
2022-08-17T20:57:50.192Z,25.10
2022-08-17T21:00:46.681Z,25.10
2022-08-17T21:03:51.783Z,25.10
2022-08-17T21:06:26.606Z,25.10
2022-08-17T21:09:01.247Z,25.10
2022-08-17T21:12:03.849Z,25.10
2022-08-17T21:14:57.564Z,25.10
2022-08-17T21:17:50.281Z,25.10
2022-08-17T21:20:37.002Z,25.10
2022-08-17T21:23:23.194Z,25.00
2022-08-17T21:26:21.283Z,25.00
2022-08-17T21:29:30.015Z,24.90
2022-08-17T21:32:24.170Z,24.80
2022-08-17T21:35:31.933Z,24.80
2022-08-17T21:38:19.535Z,24.70
2022-08-17T21:40:53.467Z,24.70
2022-08-17T21:43:29.477Z,24.70
2022-08-17T21:46:05.170Z,24.60
2022-08-17T21:48:48.287Z,24.60
2022-08-17T21:51:25.706Z,24.60
2022-08-17T21:54:00.118Z,24.50
2022-08-17T21:56:36.425Z,24.50
2022-08-17T21:59:10.740Z,24.50
2022-08-17T22:01:43.133Z,24.40
2022-08-17T22:04:28.155Z,24.50
2022-08-17T22:07:03.984Z,24.40
2022-08-17T22:09:36.761Z,24.30
2022-08-17T22:12:13.053Z,24.30
2022-08-17T22:14:51.450Z,24.30
2022-08-17T22:17:26.422Z,24.20
2022-08-17T22:20:01.914Z,24.20
2022-08-17T22:23:16.815Z,24.20
2022-08-17T22:26:04.931Z,24.10
2022-08-17T22:28:42.582Z,24.20
2022-08-17T22:31:15.627Z,24.20
2022-08-17T22:33:49.867Z,24.10
2022-08-17T22:36:26.009Z,24.10
2022-08-17T22:39:04.199Z,24.10
2022-08-17T22:41:41.337Z,24.00
2022-08-17T22:44:23.381Z,24.00
2022-08-17T22:47:06.864Z,24.00
2022-08-17T22:49:53.732Z,24.00
2022-08-17T22:52:36.036Z,24.00
2022-08-17T22:55:30.445Z,23.90
2022-08-17T22:58:13.599Z,23.90
2022-08-17T23:00:47.708Z,23.80
2022-08-17T23:03:22.342Z,23.80
2022-08-17T23:06:08.207Z,23.80
2022-08-17T23:08:48.082Z,23.90
2022-08-17T23:11:39.446Z,23.90
2022-08-17T23:14:15.895Z,23.80
2022-08-17T23:16:46.458Z,23.90
2022-08-17T23:19:20.037Z,23.90
2022-08-17T23:21:50.592Z,23.90
2022-08-17T23:24:28.015Z,23.80
2022-08-17T23:27:01.127Z,23.90
2022-08-17T23:29:32.097Z,23.80
2022-08-17T23:32:04.879Z,23.80
2022-08-17T23:34:35.277Z,23.80
2022-08-17T23:37:05.702Z,23.80
2022-08-17T23:39:36.345Z,23.80
2022-08-17T23:42:15.283Z,23.70
2022-08-17T23:44:45.978Z,23.60
2022-08-17T23:47:16.187Z,23.60
2022-08-17T23:49:46.412Z,23.60
2022-08-17T23:52:18.574Z,23.50
2022-08-17T23:54:50.453Z,23.60
2022-08-17T23:57:33.119Z,23.40
